sensor_id;sensor_type;location;lat;lon;timestamp;pressure;altitude;pressure_sealevel;temperature;humidity
61961;BME280;47923;42.506;24.192;2023-05-18T00:00:08;94980.88;;;11.89;100.00
61961;BME280;47923;42.506;24.192;2023-05-18T00:02:38;94928.19;;;11.69;100.00
61961;BME280;47923;42.506;24.192;2023-05-18T00:05:05;94968.13;;;11.86;100.00
61961;BME280;47923;42.506;24.192;2023-05-18T00:07:31;94925.38;;;11.54;100.00
61961;BME280;47923;42.506;24.192;2023-05-18T00:09:58;94895.53;;;11.40;100.00
61961;BME280;47923;42.506;24.192;2023-05-18T00:12:24;94968.03;;;11.79;100.00
61961;BME280;47923;42.506;24.192;2023-05-18T00:14:50;94960.31;;;11.77;100.00
61961;BME280;47923;42.506;24.192;2023-05-18T00:17:15;94905.56;;;11.40;100.00
61961;BME280;47923;42.506;24.192;2023-05-18T00:19:41;94810.88;;;10.74;100.00
61961;BME280;47923;42.506;24.192;2023-05-18T00:22:07;94959.88;;;11.68;100.00
61961;BME280;47923;42.506;24.192;2023-05-18T00:24:32;94933.44;;;11.47;100.00
61961;BME280;47923;42.506;24.192;2023-05-18T00:26:58;94900.47;;;11.27;100.00
61961;BME280;47923;42.506;24.192;2023-05-18T00:29:23;94791.41;;;10.50;100.00
61961;BME280;47923;42.506;24.192;2023-05-18T00:31:48;94828.25;;;10.73;100.00
61961;BME280;47923;42.506;24.192;2023-05-18T00:34:15;94963.66;;;11.60;100.00
61961;BME280;47923;42.506;24.192;2023-05-18T00:36:41;94955.09;;;11.51;100.00
61961;BME280;47923;42.506;24.192;2023-05-18T00:39:07;94868.53;;;10.92;100.00
61961;BME280;47923;42.506;24.192;2023-05-18T00:41:33;94962.81;;;11.52;100.00
61961;BME280;47923;42.506;24.192;2023-05-18T00:43:59;94962.03;;;11.48;100.00
61961;BME280;47923;42.506;24.192;2023-05-18T00:46:26;94950.06;;;11.46;100.00
61961;BME280;47923;42.506;24.192;2023-05-18T00:48:54;94801.78;;;10.48;100.00
61961;BME280;47923;42.506;24.192;2023-05-18T00:51:22;94839.44;;;10.75;100.00
61961;BME280;47923;42.506;24.192;2023-05-18T00:53:48;94945.00;;;11.44;100.00
61961;BME280;47923;42.506;24.192;2023-05-18T00:56:15;94960.31;;;11.26;100.00
61961;BME280;47923;42.506;24.192;2023-05-18T00:58:41;94893.72;;;11.03;100.00
61961;BME280;47923;42.506;24.192;2023-05-18T01:01:07;94953.47;;;11.39;100.00
61961;BME280;47923;42.506;24.192;2023-05-18T01:03:36;94962.75;;;11.42;100.00
61961;BME280;47923;42.506;24.192;2023-05-18T01:06:06;94915.81;;;11.16;100.00
61961;BME280;47923;42.506;24.192;2023-05-18T01:08:32;94849.81;;;10.69;100.00
61961;BME280;47923;42.506;24.192;2023-05-18T01:13:30;94956.59;;;11.45;100.00
61961;BME280;47923;42.506;24.192;2023-05-18T01:16:00;94959.72;;;11.47;100.00
61961;BME280;47923;42.506;24.192;2023-05-18T01:18:33;94863.44;;;10.84;100.00
61961;BME280;47923;42.506;24.192;2023-05-18T01:21:26;94956.19;;;11.43;100.00
61961;BME280;47923;42.506;24.192;2023-05-18T01:24:33;94879.72;;;10.91;100.00
61961;BME280;47923;42.506;24.192;2023-05-18T01:27:00;94959.66;;;11.40;100.00
61961;BME280;47923;42.506;24.192;2023-05-18T01:29:30;94950.41;;;11.41;100.00
61961;BME280;47923;42.506;24.192;2023-05-18T01:31:57;94905.63;;;10.99;100.00
61961;BME280;47923;42.506;24.192;2023-05-18T01:34:22;94924.34;;;11.22;100.00
61961;BME280;47923;42.506;24.192;2023-05-18T01:36:48;94813.78;;;10.51;100.00
61961;BME280;47923;42.506;24.192;2023-05-18T01:39:14;94873.91;;;10.89;100.00
61961;BME280;47923;42.506;24.192;2023-05-18T01:42:00;94946.13;;;11.40;100.00
61961;BME280;47923;42.506;24.192;2023-05-18T01:44:56;94961.28;;;11.48;100.00
61961;BME280;47923;42.506;24.192;2023-05-18T01:47:23;94959.72;;;11.50;100.00
61961;BME280;47923;42.506;24.192;2023-05-18T01:50:03;94959.34;;;11.52;100.00
61961;BME280;47923;42.506;24.192;2023-05-18T01:52:36;94961.66;;;11.50;100.00
61961;BME280;47923;42.506;24.192;2023-05-18T01:55:05;94968.63;;;11.51;100.00
61961;BME280;47923;42.506;24.192;2023-05-18T01:57:32;94968.66;;;11.54;100.00
61961;BME280;47923;42.506;24.192;2023-05-18T02:00:00;94959.28;;;11.41;100.00
61961;BME280;47923;42.506;24.192;2023-05-18T02:02:28;94647.03;;;9.11;100.00
61961;BME280;47923;42.506;24.192;2023-05-18T02:04:53;94988.75;;;11.53;100.00
61961;BME280;47923;42.506;24.192;2023-05-18T02:07:19;94983.34;;;11.53;100.00
61961;BME280;47923;42.506;24.192;2023-05-18T02:09:45;94986.81;;;11.54;100.00
61961;BME280;47923;42.506;24.192;2023-05-18T02:12:10;94746.56;;;10.02;100.00
61961;BME280;47923;42.506;24.192;2023-05-18T02:14:36;94598.84;;;9.06;100.00
61961;BME280;47923;42.506;24.192;2023-05-18T02:17:01;94828.81;;;10.52;100.00
61961;BME280;47923;42.506;24.192;2023-05-18T02:19:27;94876.94;;;10.84;100.00
61961;BME280;47923;42.506;24.192;2023-05-18T02:21:55;95002.72;;;11.62;100.00
61961;BME280;47923;42.506;24.192;2023-05-18T02:24:21;95007.38;;;11.66;100.00
61961;BME280;47923;42.506;24.192;2023-05-18T02:26:47;94864.13;;;10.73;100.00
61961;BME280;47923;42.506;24.192;2023-05-18T02:29:12;95005.09;;;11.71;100.00
61961;BME280;47923;42.506;24.192;2023-05-18T02:31:39;95002.00;;;11.73;100.00
61961;BME280;47923;42.506;24.192;2023-05-18T02:34:05;94918.16;;;11.18;100.00
61961;BME280;47923;42.506;24.192;2023-05-18T02:36:31;95010.13;;;11.73;100.00
61961;BME280;47923;42.506;24.192;2023-05-18T02:39:02;95007.03;;;11.71;100.00
61961;BME280;47923;42.506;24.192;2023-05-18T02:41:32;95011.28;;;11.72;100.00
61961;BME280;47923;42.506;24.192;2023-05-18T02:43:57;94970.88;;;11.42;100.00
61961;BME280;47923;42.506;24.192;2023-05-18T02:46:23;94885.13;;;10.91;100.00
61961;BME280;47923;42.506;24.192;2023-05-18T02:48:49;94914.19;;;11.04;100.00
61961;BME280;47923;42.506;24.192;2023-05-18T02:51:15;95017.09;;;11.74;100.00
61961;BME280;47923;42.506;24.192;2023-05-18T02:53:42;95003.47;;;11.59;100.00
61961;BME280;47923;42.506;24.192;2023-05-18T02:56:10;94879.66;;;10.84;100.00
61961;BME280;47923;42.506;24.192;2023-05-18T02:58:37;95023.72;;;11.76;100.00
61961;BME280;47923;42.506;24.192;2023-05-18T03:01:03;95032.13;;;11.68;100.00
61961;BME280;47923;42.506;24.192;2023-05-18T03:03:32;95055.69;;;11.67;100.00
61961;BME280;47923;42.506;24.192;2023-05-18T03:06:00;94934.63;;;11.02;100.00
61961;BME280;47923;42.506;24.192;2023-05-18T03:08:29;95034.09;;;11.71;100.00
61961;BME280;47923;42.506;24.192;2023-05-18T03:10:59;94960.66;;;11.21;100.00
61961;BME280;47923;42.506;24.192;2023-05-18T03:13:25;95038.78;;;11.77;100.00
61961;BME280;47923;42.506;24.192;2023-05-18T03:15:53;94864.13;;;10.73;100.00
61961;BME280;47923;42.506;24.192;2023-05-18T03:18:21;95028.78;;;11.81;100.00
61961;BME280;47923;42.506;24.192;2023-05-18T03:20:46;94838.88;;;10.55;100.00
61961;BME280;47923;42.506;24.192;2023-05-18T03:23:14;94689.81;;;9.54;100.00
61961;BME280;47923;42.506;24.192;2023-05-18T03:25:39;94759.31;;;10.05;100.00
61961;BME280;47923;42.506;24.192;2023-05-18T03:28:05;95040.03;;;11.87;100.00
61961;BME280;47923;42.506;24.192;2023-05-18T03:30:34;95050.47;;;11.88;100.00
61961;BME280;47923;42.506;24.192;2023-05-18T03:33:00;95036.59;;;11.90;100.00
61961;BME280;47923;42.506;24.192;2023-05-18T03:35:26;94955.75;;;11.37;100.00
61961;BME280;47923;42.506;24.192;2023-05-18T03:37:52;95036.22;;;11.92;100.00
61961;BME280;47923;42.506;24.192;2023-05-18T03:40:18;95046.63;;;11.89;100.00
61961;BME280;47923;42.506;24.192;2023-05-18T03:42:44;94886.59;;;10.81;100.00
61961;BME280;47923;42.506;24.192;2023-05-18T03:45:11;95045.06;;;11.85;100.00
61961;BME280;47923;42.506;24.192;2023-05-18T03:47:37;95046.22;;;11.84;100.00
61961;BME280;47923;42.506;24.192;2023-05-18T03:50:04;95046.22;;;11.84;100.00
61961;BME280;47923;42.506;24.192;2023-05-18T03:52:31;95052.03;;;11.86;100.00
61961;BME280;47923;42.506;24.192;2023-05-18T03:55:02;95038.50;;;11.89;100.00
61961;BME280;47923;42.506;24.192;2023-05-18T03:57:28;95059.38;;;11.89;100.00
61961;BME280;47923;42.506;24.192;2023-05-18T03:59:54;95046.66;;;11.93;100.00
61961;BME280;47923;42.506;24.192;2023-05-18T04:02:19;94972.03;;;11.44;100.00
61961;BME280;47923;42.506;24.192;2023-05-18T04:04:45;94855.59;;;10.68;100.00
61961;BME280;47923;42.506;24.192;2023-05-18T04:07:15;94978.22;;;11.45;100.00
61961;BME280;47923;42.506;24.192;2023-05-18T04:09:41;95058.69;;;11.99;100.00
61961;BME280;47923;42.506;24.192;2023-05-18T04:12:07;95060.63;;;12.02;100.00
61961;BME280;47923;42.506;24.192;2023-05-18T04:14:34;95010.47;;;11.68;100.00
61961;BME280;47923;42.506;24.192;2023-05-18T04:17:00;94861.13;;;10.41;100.00
61961;BME280;47923;42.506;24.192;2023-05-18T04:19:32;95080.03;;;12.08;100.00
61961;BME280;47923;42.506;24.192;2023-05-18T04:21:58;95086.59;;;12.07;100.00
61961;BME280;47923;42.506;24.192;2023-05-18T04:24:24;95106.69;;;12.06;100.00
61961;BME280;47923;42.506;24.192;2023-05-18T04:26:51;95088.09;;;12.04;100.00
61961;BME280;47923;42.506;24.192;2023-05-18T04:29:17;95086.94;;;12.02;100.00
61961;BME280;47923;42.506;24.192;2023-05-18T04:31:43;95053.09;;;11.33;100.00
61961;BME280;47923;42.506;24.192;2023-05-18T04:34:11;95090.81;;;12.01;100.00
61961;BME280;47923;42.506;24.192;2023-05-18T04:36:38;95095.09;;;12.09;100.00
61961;BME280;47923;42.506;24.192;2023-05-18T04:39:07;95018.19;;;11.62;100.00
61961;BME280;47923;42.506;24.192;2023-05-18T04:41:33;94883.69;;;10.60;100.00
61961;BME280;47923;42.506;24.192;2023-05-18T04:43:58;95097.16;;;12.26;100.00
61961;BME280;47923;42.506;24.192;2023-05-18T04:46:25;94966.22;;;11.39;100.00
61961;BME280;47923;42.506;24.192;2023-05-18T04:48:51;95044.66;;;11.83;100.00
61961;BME280;47923;42.506;24.192;2023-05-18T04:51:18;94834.03;;;10.31;100.00
61961;BME280;47923;42.506;24.192;2023-05-18T04:53:46;94950.16;;;11.12;100.00
61961;BME280;47923;42.506;24.192;2023-05-18T04:56:15;95109.19;;;12.29;100.00
61961;BME280;47923;42.506;24.192;2023-05-18T04:58:40;95055.94;;;11.92;100.00
61961;BME280;47923;42.506;24.192;2023-05-18T05:01:10;95113.78;;;12.25;100.00
61961;BME280;47923;42.506;24.192;2023-05-18T05:03:37;95008.53;;;11.65;100.00
61961;BME280;47923;42.506;24.192;2023-05-18T05:06:02;94873.00;;;10.74;100.00
61961;BME280;47923;42.506;24.192;2023-05-18T05:08:28;94972.00;;;11.37;100.00
61961;BME280;47923;42.506;24.192;2023-05-18T05:10:53;94950.25;;;11.23;100.00
61961;BME280;47923;42.506;24.192;2023-05-18T05:13:19;95132.53;;;12.51;100.00
61961;BME280;47923;42.506;24.192;2023-05-18T05:15:44;95125.25;;;12.62;100.00
61961;BME280;47923;42.506;24.192;2023-05-18T05:18:09;95031.28;;;12.08;100.00
61961;BME280;47923;42.506;24.192;2023-05-18T05:20:35;94913.78;;;11.54;100.00
61961;BME280;47923;42.506;24.192;2023-05-18T05:23:00;95120.41;;;13.04;100.00
61961;BME280;47923;42.506;24.192;2023-05-18T05:25:26;95118.88;;;13.13;100.00
61961;BME280;47923;42.506;24.192;2023-05-18T05:27:51;95016.81;;;12.55;100.00
61961;BME280;47923;42.506;24.192;2023-05-18T05:30:17;95131.81;;;13.45;100.00
61961;BME280;47923;42.506;24.192;2023-05-18T05:32:42;95125.25;;;13.71;99.89
61961;BME280;47923;42.506;24.192;2023-05-18T05:35:08;95132.25;;;13.86;98.12
61961;BME280;47923;42.506;24.192;2023-05-18T05:37:33;95136.94;;;13.96;97.05
61961;BME280;47923;42.506;24.192;2023-05-18T05:39:59;95046.94;;;13.44;95.64
61961;BME280;47923;42.506;24.192;2023-05-18T05:42:25;95138.50;;;14.12;94.08
61961;BME280;47923;42.506;24.192;2023-05-18T05:44:51;95136.94;;;14.18;93.44
61961;BME280;47923;42.506;24.192;2023-05-18T05:47:16;94531.28;;;10.29;92.86
61961;BME280;47923;42.506;24.192;2023-05-18T05:49:41;95147.78;;;14.39;92.41
61961;BME280;47923;42.506;24.192;2023-05-18T05:52:07;95143.16;;;14.50;91.62
61961;BME280;47923;42.506;24.192;2023-05-18T05:54:32;94887.97;;;12.83;90.67
61961;BME280;47923;42.506;24.192;2023-05-18T05:56:58;95168.78;;;14.49;87.65
61961;BME280;47923;42.506;24.192;2023-05-18T05:59:23;95150.50;;;14.43;87.86
61961;BME280;47923;42.506;24.192;2023-05-18T06:01:49;95014.38;;;13.51;87.55
61961;BME280;47923;42.506;24.192;2023-05-18T06:04:15;94990.34;;;13.53;88.69
61961;BME280;47923;42.506;24.192;2023-05-18T06:06:40;95164.09;;;14.39;89.15
61961;BME280;47923;42.506;24.192;2023-05-18T06:09:07;95150.94;;;14.48;89.90
61961;BME280;47923;42.506;24.192;2023-05-18T06:11:33;95154.78;;;14.40;88.94
61961;BME280;47923;42.506;24.192;2023-05-18T06:13:58;95141.97;;;14.16;89.00
61961;BME280;47923;42.506;24.192;2023-05-18T06:16:24;95113.66;;;14.13;89.59
61961;BME280;47923;42.506;24.192;2023-05-18T06:18:50;95160.63;;;14.56;88.86
61961;BME280;47923;42.506;24.192;2023-05-18T06:21:15;95075.25;;;13.90;88.15
61961;BME280;47923;42.506;24.192;2023-05-18T06:23:42;95031.78;;;13.50;87.56
61961;BME280;47923;42.506;24.192;2023-05-18T06:26:08;95088.81;;;13.93;88.13
61961;BME280;47923;42.506;24.192;2023-05-18T06:28:34;95159.06;;;14.34;87.30
61961;BME280;47923;42.506;24.192;2023-05-18T06:30:59;95100.44;;;14.15;86.85
61961;BME280;47923;42.506;24.192;2023-05-18T06:33:25;95147.41;;;14.37;86.34
61961;BME280;47923;42.506;24.192;2023-05-18T06:35:51;95070.59;;;13.79;86.84
61961;BME280;47923;42.506;24.192;2023-05-18T06:38:17;95153.63;;;14.37;87.01
61961;BME280;47923;42.506;24.192;2023-05-18T06:40:42;95102.03;;;14.05;87.11
61961;BME280;47923;42.506;24.192;2023-05-18T06:43:08;95155.97;;;14.25;86.97
61961;BME280;47923;42.506;24.192;2023-05-18T06:45:33;94799.19;;;11.98;87.09
61961;BME280;47923;42.506;24.192;2023-05-18T06:47:59;95212.25;;;14.60;87.63
61961;BME280;47923;42.506;24.192;2023-05-18T06:50:25;95119.47;;;13.90;87.13
61961;BME280;47923;42.506;24.192;2023-05-18T06:52:50;95231.25;;;14.42;87.97
61961;BME280;47923;42.506;24.192;2023-05-18T06:55:16;95194.38;;;14.23;87.15
61961;BME280;47923;42.506;24.192;2023-05-18T06:57:42;95122.94;;;13.80;86.71
61961;BME280;47923;42.506;24.192;2023-05-18T07:00:07;95156.34;;;13.98;87.68
61961;BME280;47923;42.506;24.192;2023-05-18T07:02:34;95221.56;;;14.34;87.19
61961;BME280;47923;42.506;24.192;2023-05-18T07:05:00;95227.38;;;14.32;87.50
61961;BME280;47923;42.506;24.192;2023-05-18T07:07:29;95217.28;;;14.26;88.26
61961;BME280;47923;42.506;24.192;2023-05-18T07:09:54;95116.34;;;13.63;88.08
61961;BME280;47923;42.506;24.192;2023-05-18T07:12:21;95011.50;;;12.84;88.71
61961;BME280;47923;42.506;24.192;2023-05-18T07:14:46;95232.03;;;14.18;88.11
61961;BME280;47923;42.506;24.192;2023-05-18T07:17:12;95057.25;;;12.96;88.29
61961;BME280;47923;42.506;24.192;2023-05-18T07:19:37;94701.59;;;10.68;87.78
61961;BME280;47923;42.506;24.192;2023-05-18T07:22:03;95242.09;;;14.24;88.33
61961;BME280;47923;42.506;24.192;2023-05-18T07:24:29;95236.69;;;14.24;88.08
61961;BME280;47923;42.506;24.192;2023-05-18T07:26:55;95224.66;;;14.18;87.78
61961;BME280;47923;42.506;24.192;2023-05-18T07:29:20;95181.91;;;13.87;87.65
61961;BME280;47923;42.506;24.192;2023-05-18T07:31:46;95156.28;;;13.80;87.55
61961;BME280;47923;42.506;24.192;2023-05-18T07:34:11;95146.59;;;13.69;86.87
61961;BME280;47923;42.506;24.192;2023-05-18T07:36:37;95153.56;;;13.70;87.60
61961;BME280;47923;42.506;24.192;2023-05-18T07:39:02;95252.97;;;14.31;87.98
61961;BME280;47923;42.506;24.192;2023-05-18T07:41:28;95158.63;;;13.68;87.84
61961;BME280;47923;42.506;24.192;2023-05-18T07:43:55;95262.38;;;14.48;87.50
61961;BME280;47923;42.506;24.192;2023-05-18T07:46:21;95262.31;;;14.45;86.80
61961;BME280;47923;42.506;24.192;2023-05-18T07:48:47;95175.75;;;13.97;86.54
61961;BME280;47923;42.506;24.192;2023-05-18T07:51:12;95270.50;;;14.73;85.69
61961;BME280;47923;42.506;24.192;2023-05-18T07:53:38;95267.38;;;14.96;84.85
61961;BME280;47923;42.506;24.192;2023-05-18T07:56:05;95165.28;;;14.52;84.03
61961;BME280;47923;42.506;24.192;2023-05-18T07:58:32;95268.88;;;15.33;84.21
61961;BME280;47923;42.506;24.192;2023-05-18T08:00:57;95275.44;;;15.49;83.61
61961;BME280;47923;42.506;24.192;2023-05-18T08:03:23;95119.03;;;14.77;80.78
61961;BME280;47923;42.506;24.192;2023-05-18T08:05:48;94996.47;;;14.11;79.79
61961;BME280;47923;42.506;24.192;2023-05-18T08:08:14;95156.88;;;15.34;79.77
61961;BME280;47923;42.506;24.192;2023-05-18T08:10:40;95185.72;;;15.17;79.37
61961;BME280;47923;42.506;24.192;2023-05-18T08:13:06;95219.44;;;15.52;79.63
61961;BME280;47923;42.506;24.192;2023-05-18T08:15:33;95051.53;;;14.33;80.13
61961;BME280;47923;42.506;24.192;2023-05-18T08:17:59;95306.00;;;16.03;79.97
61961;BME280;47923;42.506;24.192;2023-05-18T08:20:24;95308.34;;;16.01;79.29
61961;BME280;47923;42.506;24.192;2023-05-18T08:22:54;95181.00;;;15.36;77.74
61961;BME280;47923;42.506;24.192;2023-05-18T08:25:20;95323.47;;;16.13;79.56
61961;BME280;47923;42.506;24.192;2023-05-18T08:27:46;94903.50;;;13.46;77.58
61961;BME280;47923;42.506;24.192;2023-05-18T08:30:11;95319.94;;;16.20;78.01
61961;BME280;47923;42.506;24.192;2023-05-18T08:32:37;95325.41;;;16.16;77.77
61961;BME280;47923;42.506;24.192;2023-05-18T08:35:04;95325.81;;;16.11;77.44
61961;BME280;47923;42.506;24.192;2023-05-18T08:37:30;95336.78;;;15.97;76.95
61961;BME280;47923;42.506;24.192;2023-05-18T08:39:56;95336.88;;;15.54;76.36
61961;BME280;47923;42.506;24.192;2023-05-18T08:42:38;95299.59;;;15.33;76.45
61961;BME280;47923;42.506;24.192;2023-05-18T08:45:11;95342.34;;;15.40;77.20
61961;BME280;47923;42.506;24.192;2023-05-18T08:47:40;95340.06;;;15.28;77.26
61961;BME280;47923;42.506;24.192;2023-05-18T08:50:06;95308.19;;;15.14;77.82
61961;BME280;47923;42.506;24.192;2023-05-18T08:52:36;95355.97;;;15.43;77.38
61961;BME280;47923;42.506;24.192;2023-05-18T08:55:06;95213.41;;;14.34;78.22
61961;BME280;47923;42.506;24.192;2023-05-18T08:57:34;95269.34;;;14.56;73.02
61961;BME280;47923;42.506;24.192;2023-05-18T09:00:01;95379.31;;;15.19;73.78
61961;BME280;47923;42.506;24.192;2023-05-18T09:02:29;95378.53;;;15.26;75.31
61961;BME280;47923;42.506;24.192;2023-05-18T09:04:55;94957.22;;;12.52;74.78
61961;BME280;47923;42.506;24.192;2023-05-18T09:07:21;94961.84;;;12.51;73.90
61961;BME280;47923;42.506;24.192;2023-05-18T09:09:47;95380.88;;;15.28;73.61
61961;BME280;47923;42.506;24.192;2023-05-18T09:12:15;95386.31;;;15.17;71.50
61961;BME280;47923;42.506;24.192;2023-05-18T09:14:41;95210.63;;;13.95;70.46
61961;BME280;47923;42.506;24.192;2023-05-18T09:17:08;95390.97;;;15.13;71.07
61961;BME280;47923;42.506;24.192;2023-05-18T09:19:33;95399.53;;;15.15;70.22
61961;BME280;47923;42.506;24.192;2023-05-18T09:21:59;95398.75;;;15.18;69.77
61961;BME280;47923;42.506;24.192;2023-05-18T09:24:25;95406.53;;;15.16;68.79
61961;BME280;47923;42.506;24.192;2023-05-18T09:26:51;95308.19;;;14.57;69.63
61961;BME280;47923;42.506;24.192;2023-05-18T09:29:18;95323.72;;;14.56;69.61
61961;BME280;47923;42.506;24.192;2023-05-18T09:31:45;95413.53;;;15.28;69.84
61961;BME280;47923;42.506;24.192;2023-05-18T09:34:12;95413.53;;;15.28;69.18
61961;BME280;47923;42.506;24.192;2023-05-18T09:36:38;95373.09;;;14.94;69.17
61961;BME280;47923;42.506;24.192;2023-05-18T09:39:10;95349.75;;;14.64;68.07
61961;BME280;47923;42.506;24.192;2023-05-18T09:41:39;95423.63;;;15.16;68.82
61961;BME280;47923;42.506;24.192;2023-05-18T09:44:05;95342.75;;;14.67;68.66
61961;BME280;47923;42.506;24.192;2023-05-18T09:46:39;95331.88;;;14.49;69.17
61961;BME280;47923;42.506;24.192;2023-05-18T09:49:06;95401.44;;;14.82;70.47
61961;BME280;47923;42.506;24.192;2023-05-18T09:51:36;95429.84;;;14.99;70.24
61961;BME280;47923;42.506;24.192;2023-05-18T09:54:02;95066.34;;;12.52;70.08
61961;BME280;47923;42.506;24.192;2023-05-18T09:56:34;95317.31;;;13.88;70.22
61961;BME280;47923;42.506;24.192;2023-05-18T09:59:10;95427.06;;;14.74;71.29
61961;BME280;47923;42.506;24.192;2023-05-18T10:01:36;95426.66;;;14.69;71.19
61961;BME280;47923;42.506;24.192;2023-05-18T10:04:05;95432.88;;;14.62;72.41
61961;BME280;47923;42.506;24.192;2023-05-18T10:06:31;95349.16;;;14.02;72.60
61961;BME280;47923;42.506;24.192;2023-05-18T10:08:57;95295.91;;;13.69;72.74
61961;BME280;47923;42.506;24.192;2023-05-18T10:11:23;95393.16;;;14.36;72.20
61961;BME280;47923;42.506;24.192;2023-05-18T10:13:57;95428.22;;;14.62;72.56
61961;BME280;47923;42.506;24.192;2023-05-18T10:16:22;95352.78;;;14.38;70.84
61961;BME280;47923;42.506;24.192;2023-05-18T10:18:49;95445.38;;;14.95;67.78
61961;BME280;47923;42.506;24.192;2023-05-18T10:21:17;95377.66;;;14.40;67.47
61961;BME280;47923;42.506;24.192;2023-05-18T10:23:46;95455.81;;;14.79;68.63
61961;BME280;47923;42.506;24.192;2023-05-18T10:26:13;95457.75;;;14.82;68.61
61961;BME280;47923;42.506;24.192;2023-05-18T10:28:46;95444.94;;;14.79;69.29
61961;BME280;47923;42.506;24.192;2023-05-18T10:31:15;95467.13;;;15.02;68.03
61961;BME280;47923;42.506;24.192;2023-05-18T10:33:43;95430.97;;;14.77;65.43
61961;BME280;47923;42.506;24.192;2023-05-18T10:36:09;95311.50;;;13.93;66.35
61961;BME280;47923;42.506;24.192;2023-05-18T10:38:36;95373.34;;;14.35;65.64
61961;BME280;47923;42.506;24.192;2023-05-18T10:41:04;95449.25;;;14.87;64.27
61961;BME280;47923;42.506;24.192;2023-05-18T10:43:32;95236.97;;;13.69;64.30
61961;BME280;47923;42.506;24.192;2023-05-18T10:45:59;95392.13;;;14.94;63.05
61961;BME280;47923;42.506;24.192;2023-05-18T10:48:26;95285.66;;;14.60;62.26
61961;BME280;47923;42.506;24.192;2023-05-18T10:50:53;95455.13;;;15.78;58.62
61961;BME280;47923;42.506;24.192;2023-05-18T10:53:21;95247.59;;;14.67;61.18
61961;BME280;47923;42.506;24.192;2023-05-18T10:55:47;95458.16;;;16.19;59.27
61961;BME280;47923;42.506;24.192;2023-05-18T10:58:15;95455.06;;;16.14;60.06
61961;BME280;47923;42.506;24.192;2023-05-18T11:00:43;95426.66;;;16.11;62.83
61961;BME280;47923;42.506;24.192;2023-05-18T11:03:12;95458.44;;;16.53;61.24
61961;BME280;47923;42.506;24.192;2023-05-18T11:05:39;95461.09;;;16.68;59.50
61961;BME280;47923;42.506;24.192;2023-05-18T11:08:06;95349.22;;;15.98;57.54
61961;BME280;47923;42.506;24.192;2023-05-18T11:10:42;95431.56;;;16.45;59.07
61961;BME280;47923;42.506;24.192;2023-05-18T11:13:08;95416.91;;;16.10;59.33
61961;BME280;47923;42.506;24.192;2023-05-18T11:18:18;95472.56;;;16.23;63.63
61961;BME280;47923;42.506;24.192;2023-05-18T11:20:47;95272.84;;;14.60;62.40
61961;BME280;47923;42.506;24.192;2023-05-18T11:23:13;95455.91;;;15.50;64.27
61961;BME280;47923;42.506;24.192;2023-05-18T11:25:47;95414.69;;;15.16;66.50
61961;BME280;47923;42.506;24.192;2023-05-18T11:28:13;95408.44;;;14.87;66.31
61961;BME280;47923;42.506;24.192;2023-05-18T11:41:40;95259.56;;;13.18;68.52
61961;BME280;47923;42.506;24.192;2023-05-18T11:46:49;95493.94;;;14.93;69.47
61961;BME280;47923;42.506;24.192;2023-05-18T11:49:16;95248.38;;;13.20;70.69
61961;BME280;47923;42.506;24.192;2023-05-18T11:54:40;95505.56;;;14.90;68.98
61961;BME280;47923;42.506;24.192;2023-05-18T11:57:07;95503.25;;;14.88;71.31
61961;BME280;47923;42.506;24.192;2023-05-18T11:59:41;95501.69;;;14.87;70.96
61961;BME280;47923;42.506;24.192;2023-05-18T12:02:08;95424.56;;;14.26;70.69
61961;BME280;47923;42.506;24.192;2023-05-18T12:04:47;95508.22;;;14.69;71.16
61961;BME280;47923;42.506;24.192;2023-05-18T12:07:17;95501.63;;;14.66;71.20
61961;BME280;47923;42.506;24.192;2023-05-18T12:09:44;95508.19;;;14.54;66.14
61961;BME280;47923;42.506;24.192;2023-05-18T12:12:12;95504.28;;;14.52;63.80
61961;BME280;47923;42.506;24.192;2023-05-18T12:14:41;95512.03;;;14.50;69.98
61961;BME280;47923;42.506;24.192;2023-05-18T12:17:08;95519.44;;;14.49;69.43
61961;BME280;47923;42.506;24.192;2023-05-18T12:19:41;95522.44;;;14.33;68.85
61961;BME280;47923;42.506;24.192;2023-05-18T12:22:09;95520.88;;;14.36;71.32
61961;BME280;47923;42.506;24.192;2023-05-18T12:24:36;95304.00;;;12.99;72.04
61961;BME280;47923;42.506;24.192;2023-05-18T12:27:02;95527.53;;;14.46;73.13
61961;BME280;47923;42.506;24.192;2023-05-18T12:29:30;95541.16;;;14.49;69.82
61961;BME280;47923;42.506;24.192;2023-05-18T12:31:56;95523.56;;;14.25;73.45
61961;BME280;47923;42.506;24.192;2023-05-18T12:34:21;95382.44;;;13.77;74.52
61961;BME280;47923;42.506;24.192;2023-05-18T12:36:51;95527.00;;;15.02;73.19
61961;BME280;47923;42.506;24.192;2023-05-18T12:39:18;95498.13;;;14.62;65.17
61961;BME280;47923;42.506;24.192;2023-05-18T12:41:43;95534.41;;;15.19;65.59
61961;BME280;47923;42.506;24.192;2023-05-18T12:44:09;95538.31;;;15.15;61.84
61961;BME280;47923;42.506;24.192;2023-05-18T12:46:34;95436.34;;;14.59;64.79
61961;BME280;47923;42.506;24.192;2023-05-18T12:49:00;95475.34;;;15.24;66.70
61961;BME280;47923;42.506;24.192;2023-05-18T12:51:33;95550.06;;;15.76;66.85
61961;BME280;47923;42.506;24.192;2023-05-18T12:54:00;95505.28;;;15.41;69.24
61961;BME280;47923;42.506;24.192;2023-05-18T12:56:26;95420.13;;;15.16;68.99
61961;BME280;47923;42.506;24.192;2023-05-18T12:58:57;95335.00;;;14.80;67.60
61961;BME280;47923;42.506;24.192;2023-05-18T13:01:23;95209.84;;;13.83;65.65
61961;BME280;47923;42.506;24.192;2023-05-18T13:03:54;95562.91;;;15.83;65.93
61961;BME280;47923;42.506;24.192;2023-05-18T13:06:20;95437.56;;;14.83;66.02